San Miguel de Allende, Mexico

6:57 AM CDT on July 24, 2016 (GMT -0500)
La Lejona -Los Frailes | | Change Station

Elev 6324 ft 20.89 °N, 100.76 °W | Updated 6 minutes ago

Fog
Fog
56.7 °F
Feels Like 56.7 °F
N
0.0
Wind Variable Wind from East
Gusts 0.0 mph

Today
High -- | Low -- °F
--% Chance of Precip.
Yesterday
High -- | Low -- °F
Precip. -- in
Pressure 30.31 in
Visibility 0.0 miles
Clouds Scattered Clouds 2000 ft
Mostly Cloudy 10000 ft
Dew Point 56 °F
Humidity 96%
Rainfall 0.00 in
Snow Depth Not available.
7:14 AM 8:24 PM
Waning Gibbous, 77% visible
METAR MMQT 241145Z 00000KT 0SM FG SCT020 BKN100 12/11 A3031 RMK 8/460
Pressure 30.31 in
Visibility 0.0 miles
Clouds Scattered Clouds 2000 ft
Mostly Cloudy 10000 ft
Dew Point 56 °F
Humidity 96%
Rainfall 0.00 in
Snow Depth Not available.
7:14 AM 8:24 PM
Waning Gibbous, 77% visible
METAR MMQT 241145Z 00000KT 0SM FG SCT020 BKN100 12/11 A3031 RMK 8/460

10-Day Weather Forecast

No radar image for this location.
×

Almanac

Astronomy

Jul. 24, 2016 Rise Set
Actual Time
Civil Twilight
Nautical Twilight
Astronomical Twilight
Moon
Length of Visible Light
Length of Day
Tomorrow will be .
, % of the Moon is Illuminated

Today's Extremes

Country Highs Country Lows

Community

WunderPhotos

Upload Photos

1,927,049 photos uploaded!

WunderBlog® & News

Nearby

Air Quality

  Air Quality AQ Index Pollutant
Not available.

Snow Depth

Station Depth Elevation

Earthquake Activity

City Distance Mag. Time & Date
Minimum magnitude displayed is 2.5.

Coastal Water Temperatures

Place Temperature

Stations

Nearby Weather Stations

Station Location Temp. Windchill Dew Point Humidity Wind Precip. Elev Updated Type